Time;durP1;ratioP1;P1;durP2;ratioP2;P2;SDS_P1;SDS_P2;PMS_P1;PMS_P2;Temp;Humidity;BMP_temperature;BMP_pressure;BME280_temperature;BME280_humidity;BME280_pressure;Samples;Min_cycle;Max_cycle;Signal;HPM_P1;HPM_P2
2023/05/10 00:01:55;;;;;;;;;;;;;;;22.74;51.92;97320.09;624367;227;64983;-59
2023/05/10 00:04:22;;;;;;;;;;;;;;;22.73;53.38;97310.47;623878;227;67196;-59
2023/05/10 00:06:50;;;;;;;;;;;;;;;22.73;53.36;97307.78;623881;227;66865;-59
2023/05/10 00:09:17;;;;;;;;;;;;;;;22.74;53.34;97308.58;623550;227;62978;-59
2023/05/10 00:11:45;;;;;;;;;;;;;;;22.72;52.65;97300.80;626399;226;67216;-59
2023/05/10 00:14:12;;;;;;;;;;;;;;;22.72;52.00;97300.80;626404;226;66775;-59
2023/05/10 00:16:40;;;;;;;;;;;;;;;22.72;52.91;97302.69;623224;227;65038;-59
2023/05/10 00:19:07;;;;;;;;;;;;;;;22.72;52.52;97302.69;623244;227;67194;-59
2023/05/10 00:21:35;;;;;;;;;;;;;;;22.71;54.46;97299.21;623168;227;67477;-59
2023/05/10 00:24:02;;;;;;;;;;;;;;;22.72;53.01;97305.36;623222;227;65035;-59
2023/05/10 00:26:30;;;;;;;;;;;;;;;22.70;53.09;97297.63;623218;227;67173;-59
2023/05/10 00:28:58;;;;;;;;;;;;;;;22.69;53.16;97293.32;623174;227;65672;-59
2023/05/10 00:31:26;;;;;;;;;;;;;;;22.69;53.63;97290.64;623257;227;64927;-59
2023/05/10 00:33:53;;;;;;;;;;;;;;;22.70;53.33;97296.80;623207;227;67054;-59
2023/05/10 00:36:21;;;;;;;;;;;;;;;22.70;53.49;97304.83;623177;227;67098;-59
2023/05/10 00:38:48;;;;;;;;;;;;;;;22.68;54.08;97299.77;623238;227;65044;-59
2023/05/10 00:41:16;;;;;;;;;;;;;;;22.67;52.72;97300.86;623182;227;63986;-59
2023/05/10 00:43:44;;;;;;;;;;;;;;;22.67;54.03;97298.17;623270;227;64504;-59
2023/05/10 00:46:12;;;;;;;;;;;;;;;22.67;53.28;97297.34;623194;227;62769;-59
2023/05/10 00:48:39;;;;;;;;;;;;;;;22.65;53.04;97294.96;623170;227;65048;-59
2023/05/10 00:51:07;;;;;;;;;;;;;;;22.67;53.81;97291.99;623190;227;67043;-59
2023/05/10 00:53:35;;;;;;;;;;;;;;;22.66;53.62;97291.20;623175;227;64863;-60
2023/05/10 00:56:03;;;;;;;;;;;;;;;22.64;51.60;97287.98;623166;227;67071;-59
2023/05/10 00:58:31;;;;;;;;;;;;;;;22.65;53.96;97283.45;623247;227;67175;-59
2023/05/10 01:00:59;;;;;;;;;;;;;;;22.64;53.92;97287.98;623176;227;62932;-61
2023/05/10 01:03:26;;;;;;;;;;;;;;;22.64;53.46;97282.63;623239;227;64918;-61
2023/05/10 01:05:55;;;;;;;;;;;;;;;22.64;53.60;97282.63;623188;227;64816;-59
2023/05/10 01:08:25;;;;;;;;;;;;;;;22.64;53.06;97281.83;623178;227;62764;-59
2023/05/10 01:10:53;;;;;;;;;;;;;;;22.63;52.91;97281.03;623421;227;67075;-59
2023/05/10 01:13:39;;;;;;;;;;;;;;;22.62;53.27;97284.80;623845;227;67142;-59
2023/05/10 01:16:07;;;;;;;;;;;;;;;22.63;54.47;97280.23;624115;227;66177;-59
2023/05/10 01:18:39;;;;;;;;;;;;;;;22.61;52.76;97277.82;625217;227;67180;-59
2023/05/10 01:21:11;;;;;;;;;;;;;;;22.60;54.83;97274.34;625216;227;66858;-59
2023/05/10 01:23:47;;;;;;;;;;;;;;;22.60;53.99;97278.91;620624;227;46346;-59
2023/05/10 01:26:28;;;;;;;;;;;;;;;22.59;54.44;97280.79;625074;226;67187;-59
2023/05/10 01:28:58;;;;;;;;;;;;;;;22.58;54.70;97273.81;624923;226;66746;-59
2023/05/10 01:31:43;;;;;;;;;;;;;;;22.57;53.71;97268.75;625264;227;65032;-59
2023/05/10 01:34:15;;;;;;;;;;;;;;;22.57;54.06;97271.42;625216;227;67116;-59
2023/05/10 01:36:47;;;;;;;;;;;;;;;22.56;54.02;97270.63;625249;227;67598;-59
2023/05/10 01:39:20;;;;;;;;;;;;;;;22.57;54.22;97266.07;625241;227;62764;-59
2023/05/10 01:41:49;;;;;;;;;;;;;;;22.55;52.82;97270.89;625269;227;64853;-59
2023/05/10 01:44:18;;;;;;;;;;;;;;;22.56;54.18;97264.45;625317;227;64899;-59
2023/05/10 01:46:47;;;;;;;;;;;;;;;22.54;54.22;97256.70;625233;227;63074;-59
2023/05/10 01:49:16;;;;;;;;;;;;;;;22.54;53.53;97255.91;625244;225;63146;-59
2023/05/10 01:51:46;;;;;;;;;;;;;;;22.54;54.29;97254.02;625116;226;64692;-59
2023/05/10 01:54:14;;;;;;;;;;;;;;;22.54;53.05;97261.27;625019;226;65021;-59
2023/05/10 01:56:42;;;;;;;;;;;;;;;22.54;53.96;97263.95;625320;227;65489;-59
2023/05/10 01:59:11;;;;;;;;;;;;;;;22.53;54.60;97265.80;625247;227;67216;-58
2023/05/10 02:01:40;;;;;;;;;;;;;;;22.53;52.94;97268.47;625241;227;66076;-58
2023/05/10 02:04:08;;;;;;;;;;;;;;;22.52;53.44;97263.41;625244;227;67471;-58
2023/05/10 02:06:36;;;;;;;;;;;;;;;22.52;53.89;97271.44;625287;227;66870;-59
2023/05/10 02:09:05;;;;;;;;;;;;;;;22.51;54.29;97270.65;625223;227;62970;-59
2023/05/10 02:11:33;;;;;;;;;;;;;;;22.51;53.91;97269.85;626098;226;65049;-59
2023/05/10 02:14:01;;;;;;;;;;;;;;;22.51;53.69;97267.17;623910;226;67504;-59
2023/05/10 02:16:30;;;;;;;;;;;;;;;22.50;54.26;97266.34;623843;227;65044;-58
2023/05/10 02:18:59;;;;;;;;;;;;;;;22.51;54.45;97261.81;623848;227;67100;-59
2023/05/10 02:21:28;;;;;;;;;;;;;;;22.49;53.99;97262.08;623854;227;65103;-59
2023/05/10 02:23:57;;;;;;;;;;;;;;;22.49;54.43;97262.08;623887;227;64837;-59
2023/05/10 02:26:25;;;;;;;;;;;;;;;22.48;54.50;97259.66;623769;227;65025;-58
2023/05/10 02:28:53;;;;;;;;;;;;;;;22.48;54.13;97259.66;623842;227;67122;-58
2023/05/10 02:31:22;;;;;;;;;;;;;;;22.47;53.89;97256.19;623825;227;63719;-58
2023/05/10 02:33:50;;;;;;;;;;;;;;;22.47;54.69;97252.71;623839;227;67202;-58
2023/05/10 02:36:20;;;;;;;;;;;;;;;22.47;54.31;97256.19;623879;227;67708;-59
2023/05/10 02:38:47;;;;;;;;;;;;;;;22.46;54.57;97251.92;623804;227;62975;-58
2023/05/10 02:41:17;;;;;;;;;;;;;;;22.47;55.56;97250.83;623841;227;67711;-59
2023/05/10 02:43:45;;;;;;;;;;;;;;;22.46;54.24;97251.13;623847;227;66880;-58
2023/05/10 02:46:12;;;;;;;;;;;;;;;22.45;54.42;97249.50;623841;227;65064;-58
2023/05/10 02:48:40;;;;;;;;;;;;;;;22.44;54.70;97251.38;623900;227;67180;-59
2023/05/10 02:51:08;;;;;;;;;;;;;;;22.45;53.89;97252.18;623840;227;67177;-59
2023/05/10 02:53:37;;;;;;;;;;;;;;;22.44;54.11;97254.06;623832;227;63715;-58
2023/05/10 02:56:09;;;;;;;;;;;;;;;22.44;54.62;97248.70;623831;227;68092;-59
2023/05/10 02:58:37;;;;;;;;;;;;;;;22.44;54.82;97250.59;623634;226;67643;-58
2023/05/10 03:01:04;;;;;;;;;;;;;;;22.42;54.32;97245.49;623855;227;65042;-58
2023/05/10 03:03:32;;;;;;;;;;;;;;;22.43;53.84;97251.67;623881;227;67258;-58
2023/05/10 03:05:59;;;;;;;;;;;;;;;22.42;54.81;97248.17;623830;227;65528;-58
2023/05/10 03:08:29;;;;;;;;;;;;;;;22.42;54.57;97252.73;623848;227;65146;-59
2023/05/10 03:11:17;;;;;;;;;;;;;;;22.41;54.48;97243.91;623759;227;64791;-58
2023/05/10 03:13:56;;;;;;;;;;;;;;;22.41;54.60;97245.78;623767;227;65740;-58
2023/05/10 03:16:26;;;;;;;;;;;;;;;22.39;54.35;97238.81;623366;226;65189;-59
2023/05/10 03:18:58;;;;;;;;;;;;;;;22.40;54.84;97234.28;623505;227;64859;-59
2023/05/10 03:21:27;;;;;;;;;;;;;;;22.38;54.94;97229.19;624160;226;67048;-59
2023/05/10 03:23:57;;;;;;;;;;;;;;;22.38;54.21;97231.86;623871;227;65010;-59
2023/05/10 03:26:26;;;;;;;;;;;;;;;22.37;54.46;97230.27;621681;227;66899;-59
2023/05/10 03:28:56;;;;;;;;;;;;;;;22.37;55.79;97232.95;624314;226;48385;-59
2023/05/10 03:31:23;;;;;;;;;;;;;;;22.36;54.77;97234.00;623836;227;65104;-59
2023/05/10 03:33:52;;;;;;;;;;;;;;;22.36;54.78;97238.56;624229;227;64464;-60
2023/05/10 03:36:21;;;;;;;;;;;;;;;22.35;54.73;97237.77;623888;226;48006;-59
2023/05/10 03:38:49;;;;;;;;;;;;;;;22.35;54.87;97245.01;623812;227;65058;-59
2023/05/10 03:41:16;;;;;;;;;;;;;;;22.34;54.70;97244.21;623377;227;65576;-59
2023/05/10 03:43:44;;;;;;;;;;;;;;;22.34;53.96;97246.89;624326;227;64691;-59
2023/05/10 03:46:12;;;;;;;;;;;;;;;22.34;54.47;97254.92;623876;227;65827;-59
2023/05/10 03:48:39;;;;;;;;;;;;;;;22.34;54.54;97249.56;624135;227;66866;-58
2023/05/10 03:51:07;;;;;;;;;;;;;;;22.36;55.72;97259.98;624399;227;64721;-59
2023/05/10 03:53:35;;;;;;;;;;;;;;;22.34;54.28;97260.27;623907;227;64817;-59
2023/05/10 03:56:02;;;;;;;;;;;;;;;22.33;54.71;97261.33;623848;227;64659;-59
2023/05/10 03:58:30;;;;;;;;;;;;;;;22.32;55.59;97251.70;623578;227;64621;-59
2023/05/10 04:00:58;;;;;;;;;;;;;;;22.33;55.47;97257.86;623769;227;65765;-59
2023/05/10 04:03:26;;;;;;;;;;;;;;;22.32;55.41;97256.27;623569;227;64920;-59
2023/05/10 04:06:03;;;;;;;;;;;;;;;22.31;54.18;97263.47;624331;227;67280;-59
2023/05/10 04:08:30;;;;;;;;;;;;;;;22.31;54.75;97262.68;623849;227;65132;-59
2023/05/10 04:11:07;;;;;;;;;;;;;;;22.30;55.63;97263.77;624364;226;67072;-60
2023/05/10 04:13:35;;;;;;;;;;;;;;;22.28;56.04;97258.67;623404;227;67062;-59
2023/05/10 04:16:03;;;;;;;;;;;;;;;22.29;55.28;97267.50;623359;227;62981;-58
2023/05/10 04:18:31;;;;;;;;;;;;;;;22.29;55.28;97273.67;623523;227;64971;-59
2023/05/10 04:20:59;;;;;;;;;;;;;;;22.29;55.02;97271.00;623749;227;67084;-60
2023/05/10 04:23:27;;;;;;;;;;;;;;;22.28;55.85;97257.87;623858;227;65085;-58
2023/05/10 04:25:56;;;;;;;;;;;;;;;22.28;54.96;97258.67;623872;227;64728;-59
2023/05/10 04:28:24;;;;;;;;;;;;;;;22.27;54.63;97269.66;623203;226;66721;-60
2023/05/10 04:30:51;;;;;;;;;;;;;;;22.27;54.71;97272.34;623799;227;64922;-59
2023/05/10 04:33:19;;;;;;;;;;;;;;;22.27;53.54;97266.98;623799;227;67410;-59
2023/05/10 04:35:46;;;;;;;;;;;;;;;22.27;54.16;97270.47;623796;227;67063;-59
2023/05/10 04:38:13;;;;;;;;;;;;;;;22.27;55.32;97265.11;623842;227;65013;-59
2023/05/10 04:40:41;;;;;;;;;;;;;;;22.27;55.57;97259.75;623878;227;64949;-59
2023/05/10 04:43:08;;;;;;;;;;;;;;;22.27;55.21;97257.08;623823;227;66822;-59
2023/05/10 04:45:36;;;;;;;;;;;;;;;22.25;53.55;97259.22;623838;227;65008;-59
2023/05/10 04:48:03;;;;;;;;;;;;;;;22.26;54.34;97260.84;623831;227;67199;-59
2023/05/10 04:50:31;;;;;;;;;;;;;;;22.27;54.03;97258.95;623801;227;67032;-59
2023/05/10 04:52:58;;;;;;;;;;;;;;;22.25;53.62;97256.55;623873;227;65195;-59
2023/05/10 04:55:26;;;;;;;;;;;;;;;22.25;55.06;97259.22;623824;227;67209;-59
2023/05/10 04:57:56;;;;;;;;;;;;;;;22.26;54.74;97255.48;623825;227;68031;-59
2023/05/10 05:00:24;;;;;;;;;;;;;;;22.25;55.96;97251.19;623662;226;65310;-59
2023/05/10 05:02:52;;;;;;;;;;;;;;;22.24;54.92;97257.63;623835;227;65110;-59
2023/05/10 05:05:19;;;;;;;;;;;;;;;22.24;55.16;97257.63;623863;227;67126;-60
2023/05/10 05:07:47;;;;;;;;;;;;;;;22.25;52.92;97258.42;623830;227;65090;-59
2023/05/10 05:10:14;;;;;;;;;;;;;;;22.24;54.44;97262.98;623779;227;67208;-59
2023/05/10 05:12:42;;;;;;;;;;;;;;;22.24;54.48;97262.19;623980;227;64750;-59
2023/05/10 05:15:10;;;;;;;;;;;;;;;22.25;54.71;97263.77;623921;227;63818;-59
2023/05/10 05:17:38;;;;;;;;;;;;;;;22.24;55.27;97268.34;623986;227;67234;-59
2023/05/10 05:20:06;;;;;;;;;;;;;;;22.25;55.57;97258.42;624689;227;67520;-58
2023/05/10 05:22:33;;;;;;;;;;;;;;;22.24;54.94;97262.98;625232;227;65108;-58
2023/05/10 05:25:02;;;;;;;;;;;;;;;22.24;54.49;97262.19;625230;227;64816;-59
2023/05/10 05:27:30;;;;;;;;;;;;;;;22.23;54.18;97256.00;625193;227;64759;-59
2023/05/10 05:29:57;;;;;;;;;;;;;;;22.23;54.59;97256.00;625249;225;65164;-58
2023/05/10 05:32:25;;;;;;;;;;;;;;;22.23;54.64;97266.71;625277;227;67270;-59
2023/05/10 05:34:53;;;;;;;;;;;;;;;22.24;54.52;97268.34;625212;227;67077;-58
2023/05/10 05:37:21;;;;;;;;;;;;;;;22.23;54.69;97266.71;625187;227;62986;-58
2023/05/10 05:39:49;;;;;;;;;;;;;;;22.24;55.57;97264.86;625186;227;67034;-58
2023/05/10 05:42:18;;;;;;;;;;;;;;;22.22;54.46;97267.80;625220;227;67066;-58
2023/05/10 05:44:46;;;;;;;;;;;;;;;22.22;55.28;97265.13;625234;227;65046;-59
2023/05/10 05:47:13;;;;;;;;;;;;;;;22.22;54.15;97257.09;625200;227;67486;-58
2023/05/10 05:49:41;;;;;;;;;;;;;;;22.23;54.76;97261.36;625221;227;67080;-58
2023/05/10 05:52:08;;;;;;;;;;;;;;;22.22;54.36;97265.13;625181;227;64998;-58
2023/05/10 05:54:35;;;;;;;;;;;;;;;22.22;54.11;97265.13;625143;227;67376;-58
2023/05/10 05:57:03;;;;;;;;;;;;;;;22.22;54.57;97270.48;625047;227;67047;-58
2023/05/10 05:59:30;;;;;;;;;;;;;;;22.22;55.79;97272.36;625198;227;64926;-60
2023/05/10 06:02:01;;;;;;;;;;;;;;;22.22;53.02;97267.80;625282;226;53424;-58
2023/05/10 06:04:29;;;;;;;;;;;;;;;22.27;53.14;97277.70;625113;227;66877;-58
2023/05/10 06:06:56;;;;;;;;;;;;;;;22.28;53.06;97264.02;625199;227;65276;-58
2023/05/10 06:09:24;;;;;;;;;;;;;;;22.26;53.09;97266.20;625231;227;67077;-59
2023/05/10 06:11:51;;;;;;;;;;;;;;;22.26;52.19;97263.52;625911;226;67135;-58
2023/05/10 06:14:20;;;;;;;;;;;;;;;22.26;54.12;97255.48;623318;227;62708;-59
2023/05/10 06:16:48;;;;;;;;;;;;;;;22.24;51.34;97257.63;623772;227;66951;-57
2023/05/10 06:19:15;;;;;;;;;;;;;;;22.30;54.82;97264.56;623835;227;67063;-57
2023/05/10 06:21:43;;;;;;;;;;;;;;;22.33;53.41;97265.89;623874;227;63116;-58
2023/05/10 06:24:10;;;;;;;;;;;;;;;22.35;55.40;97261.07;623768;227;67048;-58
2023/05/10 06:26:38;;;;;;;;;;;;;;;22.36;55.86;97260.78;623793;227;66830;-57
2023/05/10 06:29:05;;;;;;;;;;;;;;;22.38;55.72;97265.88;623827;227;64978;-58
2023/05/10 06:31:33;;;;;;;;;;;;;;;22.38;54.23;97274.70;623827;227;65154;-58
2023/05/10 06:34:00;;;;;;;;;;;;;;;22.41;55.45;97281.39;623721;227;67370;-58
2023/05/10 06:36:28;;;;;;;;;;;;;;;22.42;55.18;97284.86;623885;227;65097;-58
2023/05/10 06:38:55;;;;;;;;;;;;;;;22.44;55.87;97286.20;623801;227;64906;-57
2023/05/10 06:41:23;;;;;;;;;;;;;;;22.46;55.62;97289.41;623857;227;64718;-57
2023/05/10 06:43:51;;;;;;;;;;;;;;;22.49;55.90;97285.38;623838;227;64890;-58
2023/05/10 06:46:18;;;;;;;;;;;;;;;22.50;54.63;97285.09;623829;227;67230;-58
2023/05/10 06:48:46;;;;;;;;;;;;;;;22.52;55.77;97284.84;623850;227;67037;-58
2023/05/10 06:51:13;;;;;;;;;;;;;;;22.52;55.67;97284.84;623865;227;62909;-59
2023/05/10 06:53:41;;;;;;;;;;;;;;;22.53;54.14;97286.42;623838;227;64523;-58
2023/05/10 06:56:08;;;;;;;;;;;;;;;22.53;53.41;97286.42;622826;227;67173;-58
2023/05/10 06:58:36;;;;;;;;;;;;;;;22.54;55.71;97288.05;623091;227;66465;-58
2023/05/10 07:01:04;;;;;;;;;;;;;;;22.57;52.93;97292.85;621296;228;65020;-58
2023/05/10 07:03:32;;;;;;;;;;;;;;;22.58;52.78;97289.88;621040;228;68171;-58
2023/05/10 07:06:03;;;;;;;;;;;;;;;22.60;50.47;97293.09;620948;228;64882;-57
2023/05/10 07:08:34;;;;;;;;;;;;;;;22.66;49.36;97299.23;621173;228;67204;-57
2023/05/10 07:11:03;;;;;;;;;;;;;;;22.69;50.30;97285.28;621154;227;67146;-57
2023/05/10 07:13:31;;;;;;;;;;;;;;;22.71;50.04;97290.38;620906;228;65142;-57
2023/05/10 07:15:59;;;;;;;;;;;;;;;22.72;53.22;97295.45;621158;228;64841;-59
2023/05/10 07:18:27;;;;;;;;;;;;;;;22.74;55.14;97300.55;621171;228;64704;-58
2023/05/10 07:20:54;;;;;;;;;;;;;;;22.75;54.23;97294.09;621387;227;63002;-57
2023/05/10 07:23:22;;;;;;;;;;;;;;;22.77;49.79;97297.31;621036;228;67258;-57
2023/05/10 07:25:51;;;;;;;;;;;;;;;22.79;50.00;97295.96;621144;228;64947;-58
2023/05/10 07:28:19;;;;;;;;;;;;;;;22.83;51.64;97299.70;621288;227;65023;-58
2023/05/10 07:30:47;;;;;;;;;;;;;;;22.82;50.49;97303.44;621144;228;67137;-58
2023/05/10 07:33:15;;;;;;;;;;;;;;;22.87;50.07;97299.15;621124;228;64816;-59
2023/05/10 07:35:44;;;;;;;;;;;;;;;22.90;51.06;97303.95;621132;228;64919;-58
2023/05/10 07:38:11;;;;;;;;;;;;;;;22.92;50.02;97307.17;620930;228;64875;-58
2023/05/10 07:40:40;;;;;;;;;;;;;;;22.95;49.83;97303.93;621175;228;64317;-59
2023/05/10 07:43:07;;;;;;;;;;;;;;;22.97;50.49;97301.78;621115;227;64981;-59
2023/05/10 07:45:35;;;;;;;;;;;;;;;23.00;52.31;97306.62;621144;228;66898;-58
2023/05/10 07:48:02;;;;;;;;;;;;;;;23.01;49.56;97298.28;620480;227;67105;-58
2023/05/10 07:50:30;;;;;;;;;;;;;;;23.06;50.21;97307.39;621109;228;62899;-58
2023/05/10 07:52:57;;;;;;;;;;;;;;;23.07;52.06;97299.05;620983;228;66870;-58
2023/05/10 07:55:26;;;;;;;;;;;;;;;23.11;49.80;97304.66;620876;228;64620;-58
2023/05/10 07:57:54;;;;;;;;;;;;;;;23.13;49.68;97299.82;621141;228;62702;-58
2023/05/10 08:00:21;;;;;;;;;;;;;;;23.15;50.23;97293.11;621124;228;66724;-58
2023/05/10 08:02:48;;;;;;;;;;;;;;;23.18;49.35;97303.27;621145;227;67031;-60
2023/05/10 08:05:16;;;;;;;;;;;;;;;23.21;49.52;97300.03;621116;228;65031;-61
2023/05/10 08:07:43;;;;;;;;;;;;;;;23.24;49.61;97296.81;621189;227;66800;-61
2023/05/10 08:10:11;;;;;;;;;;;;;;;23.29;50.59;97297.84;621074;228;68312;-60
2023/05/10 08:12:38;;;;;;;;;;;;;;;23.31;49.01;97303.73;621079;228;65051;-60
2023/05/10 08:15:06;;;;;;;;;;;;;;;23.34;48.96;97303.17;620152;228;67409;-60
2023/05/10 08:17:34;;;;;;;;;;;;;;;23.36;48.06;97299.14;620978;227;66988;-60
2023/05/10 08:20:02;;;;;;;;;;;;;;;23.39;49.30;97303.14;620809;228;65097;-60
2023/05/10 08:22:29;;;;;;;;;;;;;;;23.42;49.05;97295.33;620759;227;64995;-60
2023/05/10 08:24:57;;;;;;;;;;;;;;;23.44;49.96;97311.16;620524;226;65186;-60
2023/05/10 08:27:24;;;;;;;;;;;;;;;23.48;49.27;97304.14;619790;226;66125;-59
2023/05/10 08:29:52;;;;;;;;;;;;;;;23.50;48.66;97307.34;620089;229;66958;-60
2023/05/10 08:32:19;;;;;;;;;;;;;;;23.53;47.69;97304.10;620110;228;66828;-60
2023/05/10 08:34:47;;;;;;;;;;;;;;;23.56;48.16;97300.06;619956;228;65106;-60
2023/05/10 08:37:14;;;;;;;;;;;;;;;23.59;48.85;97294.13;620856;226;67233;-61
2023/05/10 08:39:42;;;;;;;;;;;;;;;23.60;47.93;97307.28;620573;226;65080;-61
2023/05/10 08:42:10;;;;;;;;;;;;;;;23.64;47.67;97307.51;619378;226;62936;-61
2023/05/10 08:44:37;;;;;;;;;;;;;;;23.67;47.64;97297.00;620549;228;67274;-59
2023/05/10 08:47:11;;;;;;;;;;;;;;;23.69;47.58;97302.90;618049;228;67220;-60
2023/05/10 08:49:35;;;;;;;;;;;;;;;23.72;47.50;97295.41;619957;228;67848;-59
2023/05/10 08:52:05;;;;;;;;;;;;;;;23.75;49.19;97302.89;620552;228;65076;-59
2023/05/10 08:54:33;;;;;;;;;;;;;;;23.77;48.09;97300.73;620505;228;66840;-61
2023/05/10 08:57:01;;;;;;;;;;;;;;;23.78;47.52;97299.64;620397;228;65048;-59
2023/05/10 08:59:29;;;;;;;;;;;;;;;23.81;47.01;97299.07;620540;228;67222;-60
2023/05/10 09:01:58;;;;;;;;;;;;;;;23.82;47.76;97300.69;620496;228;65306;-60
2023/05/10 09:04:26;;;;;;;;;;;;;;;23.84;47.58;97304.66;620498;228;63036;-60
2023/05/10 09:06:54;;;;;;;;;;;;;;;23.86;47.24;97305.19;620537;228;67385;-61
2023/05/10 09:09:22;;;;;;;;;;;;;;;23.88;46.84;97308.41;620458;228;67100;-61
2023/05/10 09:11:50;;;;;;;;;;;;;;;23.90;49.28;97310.81;622429;227;65047;-60
2023/05/10 09:14:19;;;;;;;;;;;;;;;23.92;47.59;97311.31;623080;227;67069;-60
2023/05/10 09:16:47;;;;;;;;;;;;;;;23.93;48.44;97302.20;623089;227;67041;-60
2023/05/10 09:19:15;;;;;;;;;;;;;;;23.95;48.18;97293.84;623069;227;62724;-60
2023/05/10 09:21:42;;;;;;;;;;;;;;;23.96;49.27;97306.20;623068;227;66875;-61
2023/05/10 09:24:10;;;;;;;;;;;;;;;23.97;47.84;97302.42;624081;225;66882;-61
2023/05/10 09:26:39;;;;;;;;;;;;;;;23.98;48.38;97304.83;623936;226;69813;-61
2023/05/10 09:29:08;;;;;;;;;;;;;;;23.99;48.50;97295.69;622473;225;64982;-61
2023/05/10 09:31:51;;;;;;;;;;;;;;;24.01;48.80;97292.70;621850;228;67059;-62
2023/05/10 09:34:23;;;;;;;;;;;;;;;24.02;48.21;97307.74;623051;226;65136;-60
2023/05/10 09:36:52;;;;;;;;;;;;;;;24.03;47.00;97296.70;623662;226;67114;-61
2023/05/10 09:39:20;;;;;;;;;;;;;;;24.04;48.35;97292.16;623723;226;63239;-60
2023/05/10 09:41:48;;;;;;;;;;;;;;;24.06;48.63;97287.28;623732;227;65019;-62
2023/05/10 09:44:18;;;;;;;;;;;;;;;24.07;46.15;97288.91;623774;227;65025;-61
2023/05/10 09:46:47;;;;;;;;;;;;;;;24.08;45.78;97282.44;623723;227;64960;-60
2023/05/10 09:49:15;;;;;;;;;;;;;;;24.12;47.04;97283.48;623688;227;64924;-61
2023/05/10 09:51:43;;;;;;;;;;;;;;;24.11;46.67;97277.29;622911;227;64714;-61
2023/05/10 09:54:11;;;;;;;;;;;;;;;24.13;45.77;97283.19;622247;227;64932;-61
2023/05/10 09:56:40;;;;;;;;;;;;;;;24.14;45.92;97276.75;623064;227;65030;-61
2023/05/10 09:59:09;;;;;;;;;;;;;;;24.16;47.21;97284.50;623774;227;65184;-62
2023/05/10 10:01:37;;;;;;;;;;;;;;;24.17;46.19;97282.61;620114;228;66849;-61
2023/05/10 10:04:08;;;;;;;;;;;;;;;24.18;45.77;97271.59;621167;228;63754;-61
2023/05/10 10:06:36;;;;;;;;;;;;;;;24.19;46.19;97272.39;621170;228;67314;-61
2023/05/10 10:09:04;;;;;;;;;;;;;;;24.20;46.02;97271.30;621037;228;66854;-61
2023/05/10 10:11:32;;;;;;;;;;;;;;;24.20;47.72;97266.75;621428;227;62882;-61
2023/05/10 10:14:00;;;;;;;;;;;;;;;24.20;45.53;97261.38;620705;228;67245;-62
2023/05/10 10:16:29;;;;;;;;;;;;;;;24.23;46.67;97266.17;620578;228;67363;-62
2023/05/10 10:18:57;;;;;;;;;;;;;;;24.28;45.63;97266.13;620667;228;63864;-62
2023/05/10 10:21:25;;;;;;;;;;;;;;;24.32;46.14;97272.50;620994;226;68145;-61
2023/05/10 10:23:53;;;;;;;;;;;;;;;24.37;45.63;97266.28;610312;228;64140;-61
2023/05/10 10:26:21;;;;;;;;;;;;;;;24.35;46.55;97266.55;610245;228;64668;-60
2023/05/10 10:28:51;;;;;;;;;;;;;;;24.34;47.86;97264.97;610056;227;66587;-60
2023/05/10 10:31:23;;;;;;;;;;;;;;;24.34;47.71;97264.17;615987;228;67773;-60
2023/05/10 10:33:54;;;;;;;;;;;;;;;24.33;48.53;97263.34;615924;228;64769;-59
2023/05/10 10:36:22;;;;;;;;;;;;;;;24.33;47.71;97270.61;620789;228;69371;-58
2023/05/10 10:38:51;;;;;;;;;;;;;;;24.32;47.92;97260.97;621151;228;67000;-58
2023/05/10 10:41:29;;;;;;;;;;;;;;;24.32;48.56;97269.81;621018;228;62997;-58
2023/05/10 10:44:14;;;;;;;;;;;;;;;24.32;49.16;97266.34;621088;228;65211;-58
2023/05/10 10:47:00;;;;;;;;;;;;;;;24.31;48.72;97265.55;621203;228;65670;-58
2023/05/10 10:49:28;;;;;;;;;;;;;;;24.32;49.10;97267.13;621170;228;63276;-58
2023/05/10 10:52:19;;;;;;;;;;;;;;;24.32;50.25;97260.97;621151;228;67232;-59
2023/05/10 10:55:01;;;;;;;;;;;;;;;24.30;48.32;97263.13;620896;228;64559;-58
2023/05/10 10:57:31;;;;;;;;;;;;;;;24.29;49.42;97261.55;620992;226;63173;-59
2023/05/10 11:00:16;;;;;;;;;;;;;;;24.28;49.58;97255.38;620291;227;65030;-59
2023/05/10 11:02:45;;;;;;;;;;;;;;;24.27;50.65;97266.39;621072;228;65300;-59
2023/05/10 11:05:27;;;;;;;;;;;;;;;24.26;46.03;97262.91;621139;228;65413;-59
2023/05/10 11:07:58;;;;;;;;;;;;;;;24.27;47.60;97269.08;608008;228;67282;-58
2023/05/10 11:10:26;;;;;;;;;;;;;;;24.26;48.81;97260.23;621109;227;65118;-58
2023/05/10 11:13:04;;;;;;;;;;;;;;;24.26;46.12;97257.55;621126;228;65117;-59
2023/05/10 11:15:33;;;;;;;;;;;;;;;24.26;48.58;97262.91;621108;228;65114;-58
2023/05/10 11:18:01;;;;;;;;;;;;;;;24.26;46.33;97259.44;620824;228;67058;-58
2023/05/10 11:20:33;;;;;;;;;;;;;;;24.26;44.78;97252.17;621150;228;65026;-58
2023/05/10 11:22:58;;;;;;;;;;;;;;;24.29;46.15;97246.22;621079;228;67338;-58
2023/05/10 11:25:28;;;;;;;;;;;;;;;24.30;46.46;97242.44;621143;228;66627;-58
2023/05/10 11:28:03;;;;;;;;;;;;;;;24.30;46.40;97245.12;621135;226;65123;-58
2023/05/10 11:30:32;;;;;;;;;;;;;;;24.32;45.93;97237.59;616300;228;47045;-58
2023/05/10 11:33:02;;;;;;;;;;;;;;;24.34;44.73;97235.42;620961;228;65385;-58
2023/05/10 11:35:31;;;;;;;;;;;;;;;24.36;46.11;97233.25;621144;228;64983;-58
2023/05/10 11:37:58;;;;;;;;;;;;;;;24.37;47.01;97237.53;621245;228;67070;-59
2023/05/10 11:40:26;;;;;;;;;;;;;;;24.38;44.86;97232.95;621126;228;64774;-59
2023/05/10 11:42:55;;;;;;;;;;;;;;;24.39;45.26;97234.57;621157;228;65169;-59
2023/05/10 11:45:24;;;;;;;;;;;;;;;24.40;45.42;97236.16;621141;228;64950;-57
2023/05/10 11:47:52;;;;;;;;;;;;;;;24.42;45.91;97227.80;621113;228;66721;-58
2023/05/10 11:50:19;;;;;;;;;;;;;;;24.42;45.76;97236.68;621267;228;65026;-57
2023/05/10 11:52:48;;;;;;;;;;;;;;;24.43;46.07;97230.20;621179;228;66718;-57
2023/05/10 11:55:16;;;;;;;;;;;;;;;24.43;46.31;97227.52;620966;228;72458;-57
2023/05/10 11:57:45;;;;;;;;;;;;;;;24.45;45.49;97233.44;621125;228;65092;-57
2023/05/10 12:00:16;;;;;;;;;;;;;;;24.46;45.00;97231.55;621176;228;64859;-58
2023/05/10 12:02:44;;;;;;;;;;;;;;;24.46;46.93;97228.86;621155;228;66917;-57
2023/05/10 12:05:11;;;;;;;;;;;;;;;24.46;46.66;97224.28;621226;228;65097;-57
2023/05/10 12:07:39;;;;;;;;;;;;;;;24.46;47.53;97228.86;621126;228;66927;-57
2023/05/10 12:10:11;;;;;;;;;;;;;;;24.48;46.49;97227.48;619403;227;66831;-57
2023/05/10 12:12:41;;;;;;;;;;;;;;;24.48;45.95;97224.80;621628;228;62941;-59
2023/05/10 12:15:15;;;;;;;;;;;;;;;24.49;45.04;97214.85;621724;228;64908;-58
2023/05/10 12:17:44;;;;;;;;;;;;;;;24.50;47.49;97225.32;621694;228;67026;-58
2023/05/10 12:20:16;;;;;;;;;;;;;;;24.50;45.68;97224.50;621790;227;65049;-58
2023/05/10 12:22:53;;;;;;;;;;;;;;;24.51;45.14;97220.74;621641;227;65008;-58
2023/05/10 12:25:21;;;;;;;;;;;;;;;24.50;44.29;97228.01;621718;228;66924;-58
2023/05/10 12:27:54;;;;;;;;;;;;;;;24.50;44.19;97216.44;621794;228;65085;-62
2023/05/10 12:30:23;;;;;;;;;;;;;;;24.51;45.09;97221.53;621528;227;67086;-62
2023/05/10 12:32:51;;;;;;;;;;;;;;;24.51;46.46;97224.22;621705;228;64948;-60
2023/05/10 12:35:23;;;;;;;;;;;;;;;24.57;44.40;97219.58;621684;228;65164;-62
2023/05/10 12:37:54;;;;;;;;;;;;;;;24.66;44.62;97222.41;621650;228;67906;-61
2023/05/10 12:40:21;;;;;;;;;;;;;;;24.72;45.48;97205.95;621674;228;66762;-63
2023/05/10 12:42:49;;;;;;;;;;;;;;;24.77;45.25;97202.36;621724;227;65061;-66
2023/05/10 12:45:18;;;;;;;;;;;;;;;24.75;46.31;97205.36;621613;228;68043;-65
2023/05/10 12:47:45;;;;;;;;;;;;;;;24.72;47.97;97199.78;621770;228;67437;-65
2023/05/10 12:50:13;;;;;;;;;;;;;;;24.69;48.68;97201.16;621641;228;65011;-62
2023/05/10 12:52:40;;;;;;;;;;;;;;;24.66;47.90;97199.02;621728;228;67242;-62
2023/05/10 12:55:08;;;;;;;;;;;;;;;24.63;46.52;97196.13;621488;228;67130;-61
2023/05/10 12:57:35;;;;;;;;;;;;;;;24.62;47.93;97195.33;621564;228;65132;-61